x

9442396 - La Push, Wa (lapw1) Weather Station

4:36 - Sat 21st Jan 2017 All times are PST. -8 hours from GMT.

  • Wind
    3mph, 8mph gusts
  • Sea Temp 42°f
  • Luft Temp 47°f
  • Sea Pressure 996.7mb
  • 9442396 - La Push, Wa
  • 9442396 - La Push, Wa

More Historic Weather Station data

Upgrade to MSW Pro to gain access to the past 30 days of data for over 8000 Wavebouys and Weather Stations around the globe.

Join Pro

Comparision Forecast

View Surf forecast
   
Sa 01/21 4:36 3 8 mph 996.7mb 42f 47f
4:30 3 5 mph 996.7mb 41f 47f
4:24 5 6 mph 996.6mb 41f 47f
4:18 3 5 mph 996.6mb 41f 47f
4:12 3 6 mph 996.5mb 41f 47f
4:06 2 8 mph 996.5mb 41f 47f
4:00 3 5 mph 996.4mb 41f 47f
3:36 6 8 mph 996.1mb 41f 48f
3:30 6 10 mph 996mb 41f 48f
3:24 5 9 mph 995.9mb 41f 48f
3:18 3 7 mph 995.8mb 41f 48f
3:12 5 7 mph 995.8mb 41f 47f
3:06 3 7 mph 995.7mb 41f 47f
3:00 2 7 mph 995.7mb 41f 46f
2:36 2 7 mph 995.5mb 41f 46f
2:30 5 6 mph 995.4mb 41f 46f
2:24 5 8 mph 995.3mb 41f 46f
2:18 5 8 mph 995.3mb 41f 45f
2:12 5 9 mph 995.2mb 41f 45f
2:06 6 8 mph 995.1mb 41f 45f
2:00 5 11 mph 995mb 41f 45f
1:36 3 6 mph 994.9mb 41f 45f
1:30 5 8 mph 994.8mb 41f 45f
1:24 6 13 mph 994.8mb 41f 45f
1:18 6 10 mph 994.7mb 41f 45f
1:12 7 11 mph 994.7mb 41f 45f
1:06 6 13 mph 994.6mb 41f 45f
1:00 6 10 mph 994.6mb 41f 45f
12:36 14 18 mph 994.4mb 41f 45f
12:30 11 21 mph 994.3mb 41f 45f
12:24 13 25 mph 994.3mb 41f 45f
12:18 17 28 mph 994.2mb 41f 46f
12:12 14 23 mph 994.2mb 41f 46f
12:06 14 20 mph 994.1mb 41f 45f
12:00 14 23 mph 994.1mb 41f 46f
11:36 8 16 mph 993.7mb 41f 47f
11:30 8 15 mph 993.7mb 41f 46f
11:24 7 14 mph 993.6mb 41f 45f
11:18 5 10 mph 993.7mb 41f 45f
11:12 2 6 mph 993.6mb 41f 44f
11:06 3 6 mph 993.5mb 41f 44f
11:00 5 6 mph 993.5mb 41f 43f
10:36 5 8 mph 993.2mb 41f 42f
10:30 6 8 mph 993.1mb 41f 42f
10:24 5 9 mph 993.1mb 41f 42f
10:18 6 8 mph 993mb 41f 42f
10:12 6 8 mph 993mb 41f 42f
10:06 6 7 mph 992.9mb 41f 42f
10:00 6 8 mph 992.8mb 41f 41f
9:36 7 10 mph 992.6mb 41f 40f
9:30 6 9 mph 992.5mb 41f 40f
9:24 6 8 mph 992.4mb 41f 40f
9:18 7 8 mph 992.3mb 41f 40f
9:12 6 8 mph 992.2mb 41f 40f
9:06 5 8 mph 992.1mb 41f 40f
9:00 5 8 mph 992mb 41f 40f
8:36 6 8 mph 991.9mb 41f 40f
8:30 6 8 mph 991.8mb 41f 40f
8:24 6 8 mph 991.7mb 41f 40f
8:18 5 8 mph 991.6mb 42f 40f
8:12 6 8 mph 991.5mb 42f 40f
8:06 6 9 mph 991.4mb 42f 40f
8:00 3 9 mph 991.4mb 42f 40f
7:36 5 9 mph 991mb 42f 40f
7:30 6 8 mph 990.9mb 42f 40f
7:24 6 7 mph 990.9mb 42f 40f
7:18 5 7 mph 990.8mb 41f 40f
7:12 6 9 mph 990.7mb 42f 40f
7:06 6 8 mph 990.7mb 41f 40f
7:00 6 8 mph 990.6mb 42f 40f
6:36 5 7 mph 990.4mb 42f 40f
6:30 6 8 mph 990.4mb 41f 40f
6:24 6 8 mph 990.4mb 41f 40f
6:18 5 7 mph 990.3mb 41f 40f
6:12 5 7 mph 990.3mb 42f 40f
6:06 6 7 mph 990.2mb 41f 40f
6:00 5 8 mph 990.1mb 41f 40f
5:36  -  mph 989.9mb 41f -
5:30  -  mph 989.8mb 41f -
5:24  -  mph 989.8mb 41f -
5:18  -  mph 989.8mb 41f -
5:12  -  mph 989.8mb 41f -
5:06  -  mph 989.7mb 41f -
5:00  -  mph 989.7mb 41f -
4:36 5 6 mph 989.6mb 41f 40f
4:30 5 7 mph 989.6mb 41f 40f
4:24 6 8 mph 989.6mb 41f 40f
4:18 6 7 mph 989.6mb 41f 40f
4:12 5 7 mph 989.5mb 41f 40f
4:06 5 6 mph 989.5mb 41f 40f
4:00 5 8 mph 989.5mb 41f 40f
3:36 6 8 mph 989.3mb 41f 41f
3:30 6 9 mph 989.3mb 41f 40f
3:24 6 7 mph 989.3mb 41f 40f
3:18 5 9 mph 989.2mb 41f 40f
3:12 6 8 mph 989.2mb 41f 40f
3:06 6 8 mph 989.2mb 41f 40f
3:00 6 8 mph 989.2mb 41f 40f
2:36 5 7 mph 989mb 41f 40f
2:30 6 8 mph 989mb 41f 40f
2:24 6 7 mph 988.9mb 41f 40f
2:18 6 9 mph 988.9mb 41f 40f
2:12 6 8 mph 988.9mb 41f 40f
2:06 5 8 mph 988.8mb 41f 40f
2:00 6 8 mph 988.7mb 41f 41f
1:36 3 7 mph 988.5mb 41f 41f
1:30 6 8 mph 988.5mb 41f 41f
1:24 5 7 mph 988.4mb 41f 41f
1:18 6 8 mph 988.3mb 41f 41f
1:12 7 9 mph 988.2mb 41f 41f
1:06 6 9 mph 988.2mb 41f 41f
1:00 6 9 mph 988.2mb 41f 41f
12:36 5 8 mph 988.1mb 41f 41f
12:30 5 8 mph 988.1mb 41f 41f
12:24 6 8 mph 988mb 41f 41f
12:18 5 8 mph 988mb 41f 41f
12:12 6 9 mph 988mb 41f 41f
12:06 5 7 mph 987.9mb 41f 41f
12:00 5 9 mph 987.9mb 41f 41f
Fr 01/20 11:36 6 9 mph 987.8mb 41f 41f
11:30 7 10 mph 987.8mb 41f 41f
11:24 5 9 mph 987.8mb 41f 41f
11:18 7 10 mph 987.8mb 41f 41f
11:12 7 9 mph 987.7mb 41f 41f
11:06 6 8 mph 987.7mb 41f 41f
11:00 5 8 mph 987.6mb 41f 41f
10:36 6 11 mph 987.5mb 41f 41f
10:30 6 10 mph 987.4mb 41f 42f
10:24 6 9 mph 987.3mb 41f 42f
10:18 6 8 mph 987.3mb 41f 42f
10:12 6 9 mph 987.2mb 41f 42f
10:06 6 10 mph 987.2mb 41f 42f
10:00 6 10 mph 987.2mb 41f 42f
9:36 3 8 mph 987.1mb 41f 42f
9:30 6 8 mph 987.1mb 41f 42f
9:24 5 7 mph 987.1mb 41f 42f
9:18 5 6 mph 987mb 41f 42f
9:12 5 6 mph 987mb 41f 42f
9:06 3 6 mph 987mb 41f 42f
9:00 3 7 mph 987mb 41f 42f
8:36 3 6 mph 986.8mb 41f 42f
8:30 3 5 mph 986.8mb 41f 42f
8:24 2 7 mph 986.7mb 41f 42f
8:18 3 6 mph 986.7mb 41f 42f
8:12 3 6 mph 986.7mb 41f 42f
8:06 3 5 mph 986.6mb 41f 42f
8:00 3 5 mph 986.5mb 41f 42f
7:36 5 6 mph 986.4mb 41f 43f
7:30 2 5 mph 986.3mb 42f 43f
7:24 3
mph
986.2mb 42f 43f
7:18 2 5 mph 986.2mb 41f 43f
7:12 3 6 mph 986.2mb 41f 43f
7:06 3 6 mph 986.1mb 42f 43f
7:00 3 7 mph 986.1mb 41f 43f
6:36 3 6 mph 985.9mb 41f 43f
6:30 3 7 mph 985.9mb 41f 43f
6:24 3 7 mph 985.8mb 41f 43f
6:18 3 7 mph 985.8mb 41f 43f
6:12 5 7 mph 985.7mb 41f 43f
6:06 5 6 mph 985.6mb 41f 43f
6:00 5 7 mph 985.5mb 41f 43f
5:54 5 7 mph 985.4mb 41f 43f
5:48 3 7 mph 985.4mb 41f 43f
5:36 3 6 mph 985.3mb 41f 44f
5:30 3 6 mph 985.3mb 41f 44f
5:24 3 5 mph 985.3mb 41f 44f
5:18 2 5 mph 985.3mb 41f 44f
5:12 3 6 mph 985.2mb 41f 44f
5:06 1 3 mph 985.3mb 41f 44f
5:00 3 5 mph 985.3mb 42f 44f
4:54 2 6 mph 985.2mb 41f 44f
4:48 3 6 mph 985.1mb 41f 44f
4:36 2 5 mph 985.1mb 41f 44f
4:30 5
mph
985.1mb 41f 44f
4:24 3 5 mph 985.1mb 41f 44f
4:18 2 3 mph 985.1mb 41f 45f
4:12 2 3 mph 985.1mb 41f 45f
4:06 2 3 mph 985mb 41f 45f
4:00 1 2 mph 985.1mb 41f 45f
3:54 1 2 mph 985mb 41f 45f
3:48 2 3 mph 984.9mb 41f 45f
3:36 2 3 mph 984.9mb 41f 45f
3:30 2 6 mph 985mb 41f 45f
3:24 2 5 mph 984.9mb 41f 45f
3:18 5 6 mph 984.8mb 41f 45f
3:12 5 6 mph 984.8mb 41f 45f
3:06 5 7 mph 984.7mb 41f 45f
3:00 3 8 mph 984.6mb 41f 45f
2:54 6 7 mph 984.5mb 41f 45f
2:48 2 5 mph 984.5mb 41f 45f
2:36 5 7 mph 984.4mb 41f 45f
2:30 3 6 mph 984.4mb 41f 45f
2:24 3 6 mph 984.4mb 41f 45f
2:18 5 7 mph 984.4mb 41f 45f
2:12 3 6 mph 984.3mb 41f 45f
2:06 3 5 mph 984.3mb 41f 46f
2:00 2 5 mph 984.3mb 41f 46f
1:54 3 7 mph 984.3mb 41f 46f
1:48 5 6 mph 984.4mb 41f 46f
1:36 5 8 mph 984.3mb 41f 46f
1:30 5 7 mph 984.2mb 41f 46f
1:24 5 9 mph 984.2mb 41f 46f
1:18 6 10 mph 984.2mb 41f 46f
1:12 6 11 mph 984.2mb 41f 45f
1:06 7 9 mph 984.2mb 41f 45f
1:00 7 10 mph 984.1mb 41f 45f
12:54 7 11 mph 984mb 41f 45f
12:48 6 9 mph 984.1mb 41f 45f
12:36 6 9 mph 984.1mb 41f 45f
12:30 7 9 mph 984.2mb 41f 45f
12:24 7 10 mph 984.2mb 41f 45f
12:18 7 11 mph 984.3mb 41f 45f
12:12 9 13 mph 984.3mb 41f 45f
12:06 7 13 mph 984.4mb 41f 44f
12:00 8 10 mph 984.4mb 41f 44f
11:54 7 11 mph 984.4mb 41f 44f
11:48 6 10 mph 984.5mb 41f 44f
11:36 8 13 mph 984.6mb 41f 44f
11:30 8 14 mph 984.7mb 41f 44f
11:24 6 11 mph 984.6mb 41f 44f
11:18 7 13 mph 984.6mb 41f 43f
11:12 8 11 mph 984.6mb 41f 43f
11:06 8 13 mph 984.7mb 41f 43f
11:00 6 14 mph 984.8mb 41f 43f
10:54 6 11 mph 984.8mb 41f 43f
10:48 8 11 mph 984.9mb 41f 43f
10:36 7 13 mph 984.9mb 41f 43f
10:30 7 11 mph 984.9mb 41f 42f
10:24 7 11 mph 984.9mb 41f 42f
10:18 7 11 mph 985.1mb 41f 42f
10:12 7 10 mph 985mb 41f 42f
10:06 6 11 mph 985.1mb 41f 42f
10:00 7 11 mph 985mb 41f 42f
9:54 6 10 mph 985mb 41f 41f
9:48 7 11 mph 985mb 41f 41f
9:36 9 13 mph 985mb 41f 41f
9:30 7 13 mph 985mb 41f 41f
9:24 7 13 mph 985.1mb 41f 41f
9:18 7 11 mph 985.1mb 41f 41f
9:12 7 14 mph 985.1mb 41f 41f
9:06 8 11 mph 985.1mb 41f 41f
9:00 7 13 mph 985.1mb 41f 41f
8:54 8 14 mph 985.2mb 41f 41f
8:48 7 14 mph 985.2mb 41f 41f
8:36 8 14 mph 985.3mb 41f 41f
8:30 7 16 mph 985.2mb 42f 41f
8:24 8 14 mph 985.3mb 42f 41f
8:18 9 14 mph 985.3mb 41f 41f
8:12 6 10 mph 985.3mb 42f 41f
8:06 7 13 mph 985.3mb 42f 41f
8:00 7 14 mph 985.3mb 42f 41f
7:54 8 14 mph 985.3mb 42f 41f
7:48 8 13 mph 985.5mb 42f 41f
7:36 8 13 mph 985.7mb 42f 41f
7:30 8 13 mph 985.9mb 42f 41f
7:24 9 13 mph 985.9mb 42f 41f
7:18 8 11 mph 986mb 42f 41f
7:12 9 14 mph 986mb 42f 41f
7:06 9 15 mph 986mb 42f 40f
7:00 8 11 mph 986.2mb 42f 40f
6:54 6 9 mph 986.3mb 42f 40f
6:48 7 11 mph 986.5mb 42f 40f
6:36 7 13 mph 986.7mb 42f 40f
6:30 7 13 mph 986.8mb 42f 40f
6:24 8 11 mph 987mb 42f 40f
6:18 7 10 mph 987mb 42f 40f
6:12 6 9 mph 987.2mb 42f 40f
6:06 7 11 mph 987.2mb 42f 40f
6:00 7 13 mph 987.3mb 42f 40f
5:54 6 11 mph 987.3mb 42f 40f
5:48 7 11 mph 987.4mb 42f 40f
5:36 8 11 mph 987.6mb 42f 40f
5:30 7 10 mph 987.7mb 42f 40f
5:24 7 13 mph 987.8mb 42f 40f
5:18 7 10 mph 987.9mb 42f 40f
5:12 7 9 mph 988.1mb 42f 40f
5:06 7 13 mph 988.1mb 42f 40f
5:00 9 14 mph 988.1mb 42f 40f
4:54 10 14 mph 988.2mb 42f 40f
4:48 7 13 mph 988.4mb 42f 40f
4:36 8 11 mph 988.7mb 42f 40f
4:30 8 14 mph 988.9mb 42f 40f
4:24 8 11 mph 989.1mb 42f 40f
4:18 8 13 mph 989.2mb 42f 40f
4:12 8 13 mph 989.3mb 42f 41f
4:06 8 11 mph 989.4mb 42f 41f
4:00 9 14 mph 989.6mb 42f 41f
3:54 8 11 mph 989.7mb 42f 41f
3:48 8 13 mph 989.8mb 42f 41f
3:36 7 10 mph 990mb 42f 41f
3:30 8 10 mph 990.1mb 42f 41f
3:24 7 11 mph 990.3mb 42f 41f
3:18 8 13 mph 990.5mb 42f 41f
3:12 7 13 mph 990.6mb 42f 41f
3:06 7 11 mph 990.8mb 42f 41f
3:00 7 10 mph 991mb 42f 42f
2:54 6 10 mph 991.1mb 42f 42f
2:48 8 11 mph 991.2mb 42f 42f
2:36 7 10 mph 991.3mb 42f 42f
2:30 7 10 mph 991.4mb 42f 42f
2:24 8 11 mph 991.4mb 42f 42f
2:18 7 11 mph 991.5mb 42f 42f
2:12 7 11 mph 991.5mb 42f 42f
2:06 8 11 mph 991.6mb 42f 42f
2:00 7 10 mph 991.7mb 42f 42f
1:54 6 9 mph 991.7mb 42f 42f
1:48 6 8 mph 991.8mb 42f 42f
1:36 5 7 mph 992mb 42f 43f
1:30 5 7 mph 992.2mb 42f 43f
1:24 5 6 mph 992.3mb 42f 43f
1:18 5 7 mph 992.5mb 42f 43f
1:12 5 8 mph 992.7mb 42f 43f
1:06 3 8 mph 992.8mb 42f 43f
1:00 3 11 mph 992.9mb 42f 43f
12:54 6 11 mph 993mb 42f 44f
12:48 7 16 mph 993.1mb 42f 44f
12:36 7 14 mph 993.2mb 42f 44f
12:30 5 15 mph 993.3mb 42f 43f
12:24 5 11 mph 993.5mb 42f 43f
12:18 6 10 mph 993.5mb 42f 43f
12:12 6 9 mph 993.5mb 42f 43f
12:06 5 9 mph 993.7mb 42f 44f
12:00 6 11 mph 993.8mb 42f 44f
Do 01/19 11:54 6 13 mph 993.9mb 42f 44f
11:48 6 13 mph 994mb 42f 44f
11:36 9 16 mph 994.3mb 42f 44f
11:30 8 13 mph 994.3mb 42f 44f
11:24 7 9 mph 994.4mb 42f 44f
11:18 8 13 mph 994.4mb 42f 44f
11:12 5 11 mph 994.5mb 42f 44f
11:06 8 14 mph 994.6mb 42f 44f
11:00 8 14 mph 994.6mb 42f 44f
10:54 9 16 mph 994.6mb 42f 44f
10:48 8 16 mph 994.6mb 42f 45f
10:36 6 13 mph 994.8mb 42f 45f
10:30 5 13 mph 994.8mb 42f 45f
10:24 8 14 mph 994.9mb 42f 45f
10:18 10 16 mph 995mb 42f 45f
10:12 7 14 mph 995mb 42f 45f
10:06 7 16 mph 995mb 42f 45f
10:00 6 17 mph 995mb 42f 45f
9:54 8 20 mph 995.1mb 42f 45f
9:48 7 13 mph 995.1mb 42f 45f
9:36 6 11 mph 995.1mb 42f 45f
9:30 8 15 mph 995.2mb 42f 45f
9:24 8 11 mph 995.3mb 42f 45f
9:18 6 9 mph 995.4mb 42f 45f
9:12 6 13 mph 995.4mb 42f 45f
9:06 6 13 mph 995.5mb 42f 45f
9:00 6 11 mph 995.6mb 42f 45f
8:54 8 15 mph 995.6mb 42f 45f
8:48 8 16 mph 995.7mb 42f 45f
8:36 9 17 mph 995.8mb 42f 45f
8:30 9 15 mph 995.8mb 42f 45f
8:24 9 15 mph 995.8mb 42f 45f
8:18 5 10 mph 995.8mb 42f 45f
8:12 7 9 mph 995.8mb 42f 45f
8:06 3 6 mph 995.9mb 42f 45f
8:00 3 9 mph 995.8mb 42f 45f
7:54 5 11 mph 995.8mb 42f 45f
7:48 6 9 mph 995.9mb 42f 45f
7:36 3 9 mph 996mb 42f 45f
7:30 6 9 mph 996mb 42f 45f
7:24 5 9 mph 996.1mb 42f 45f
7:18 3 9 mph 996.1mb 42f 45f
7:12 6 9 mph 996.1mb 42f 45f
7:06 5 10 mph 996.2mb 42f 45f
7:00 5 8 mph 996.2mb 42f 45f
6:54 3 8 mph 996.3mb 42f 45f
6:48 3 8 mph 996.3mb 42f 45f
6:36 3 6 mph 996.4mb 42f 45f
6:30 2 6 mph 996.4mb 42f 45f
6:24 3 6 mph 996.4mb 42f 45f
6:18 3 6 mph 996.4mb 42f 45f
6:12 2 5 mph 996.5mb 42f 45f
6:06 2 6 mph 996.6mb 42f 45f
6:00 3 7 mph 996.6mb 42f 45f
5:54 2 5 mph 996.7mb 42f 45f
5:48 2 3 mph 996.7mb 42f 45f
5:36 3 5 mph 996.7mb 42f 45f
5:30 3 6 mph 996.7mb 42f 46f
5:24 5 7 mph 996.7mb 42f 46f
5:18 2 6 mph 996.7mb 42f 46f
5:12 1 8 mph 996.7mb 42f 46f
5:06 7 8 mph 996.8mb 42f 45f
5:00 1 3 mph 996.8mb 42f 45f
4:54 1 5 mph 996.8mb 42f 45f
4:48 5 6 mph 996.8mb 42f 46f
4:36 3 6 mph 996.9mb 42f 46f
4:30 3 8 mph 996.9mb 42f 46f
4:24 6 9 mph 996.8mb 42f 46f
4:18 5 7 mph 996.8mb 42f 46f
4:12 5 8 mph 996.8mb 42f 46f
4:06 5 7 mph 996.8mb 42f 46f
4:00 3 8 mph 996.8mb 42f 46f
3:54 5 8 mph 996.7mb 42f 46f
3:48 5 8 mph 996.7mb 42f 46f
3:36 6 7 mph 996.6mb 42f 46f
3:30 5 7 mph 996.5mb 42f 46f
3:24 6 8 mph 996.5mb 42f 46f
3:18 5 7 mph 996.5mb 42f 45f
3:12 7 8 mph 996.5mb 42f 46f
3:06 5 9 mph 996.5mb 42f 45f
3:00 7 8 mph 996.5mb 42f 45f
2:54 6 7 mph 996.5mb 42f 45f
2:48 6 7 mph 996.5mb 42f 45f
2:36 6 7 mph 996.4mb 42f 45f
2:30 6 7 mph 996.4mb 42f 45f
2:24 6 8 mph 996.4mb 42f 45f
2:18 6 8 mph 996.5mb 42f 45f
2:12 5 6 mph 996.5mb 42f 45f
2:06 5 7 mph 996.5mb 42f 45f
2:00 6 7 mph 996.5mb 42f 45f
1:54 5 7 mph 996.6mb 42f 45f
1:48 6 7 mph 996.6mb 42f 45f
1:36 5 7 mph 996.7mb 42f 45f
1:30 6
mph
996.7mb 42f 45f
1:24 3 5 mph 996.7mb 42f 45f
1:18 3 6 mph 996.7mb 42f 45f
1:12 3 7 mph 996.7mb 42f 45f
1:06 6 8 mph 996.8mb 42f 45f
1:00 6 9 mph 996.8mb 42f 45f
12:54 5 6 mph 996.9mb 42f 45f
12:48 5 8 mph 996.9mb 42f 45f
12:36 7 9 mph 997mb 42f 45f
12:30 6 7 mph 997mb 42f 45f
12:24 6 10 mph 997.1mb 42f 46f
12:18 8 15 mph 997.1mb 42f 46f
12:12 11 15 mph 997mb 42f 46f
12:06 11 15 mph 997.1mb 42f 45f
12:00 15 20 mph 997.1mb 42f 46f
11:54 9 15 mph 997.1mb 42f 47f
11:48 13 17 mph 997.1mb 42f 47f
11:36 9 14 mph 997.1mb 42f 47f
11:30 8 14 mph 997.2mb 42f 47f
11:24 7 10 mph 997.2mb 42f 47f
11:18 7 13 mph 997.3mb 42f 47f
11:12 10 14 mph 997.3mb 42f 47f
11:06 11 15 mph 997.3mb 42f 47f
11:00 8 13 mph 997.3mb 42f 47f
10:54 9 14 mph 997.3mb 42f 47f
10:48 8 13 mph 997.3mb 41f 47f
10:36 8 13 mph 997.2mb 41f 47f
10:30 8 14 mph 997.2mb 41f 47f
10:24 6 13 mph 997.2mb 41f 47f
10:18 8 11 mph 997.2mb 41f 47f
10:12 6 9 mph 997.2mb 41f 47f
10:06 6 9 mph 997.1mb 41f 47f
10:00 7 9 mph 997.2mb 41f 46f
9:54 2 6 mph 997.2mb 41f 46f
9:48 2 7 mph 997.2mb 41f 46f
9:36 5 6 mph 997.1mb 41f 46f
9:30 5 8 mph 997mb 42f 46f
9:24 5 8 mph 997mb 41f 46f
9:18 6 14 mph 996.9mb 41f 46f
9:12 5 11 mph 996.8mb 41f 46f
9:06 5 13 mph 996.7mb 41f 46f
9:00 6 10 mph 996.7mb 42f 46f
8:54 6 11 mph 996.7mb 42f 46f
8:48 6 14 mph 996.7mb 42f 46f
8:36 8 13 mph 996.5mb 42f 46f
8:30 8 10 mph 996.5mb 42f 45f
8:24 7 9 mph 996.4mb 42f 45f
8:18 6 7 mph 996.4mb 42f 46f
8:12 5 7 mph 996.3mb 42f 46f
8:06 6 8 mph 996.2mb 42f 45f
8:00 6 8 mph 996.2mb 42f 46f
7:54 7 10 mph 996.1mb 42f 46f
7:48 7 14 mph 996.1mb 42f 46f
7:36 10 15 mph 996mb 42f 46f
7:30 11 20 mph 995.9mb 42f 46f
7:24 10 17 mph 995.8mb 42f 46f
7:18 11 18 mph 995.8mb 42f 46f
7:12 13 18 mph 995.8mb 42f 46f
7:06 5 9 mph 995.8mb 42f 46f
7:00 6 14 mph 995.7mb 42f 46f
6:54 3 8 mph 995.7mb 42f 46f
6:48 7 10 mph 995.7mb 42f 46f
6:36 6 13 mph 995.6mb 42f 46f
6:30 3 9 mph 995.6mb 42f 46f
6:24 6 11 mph 995.6mb 42f 46f
6:18 7 13 mph 995.6mb 42f 46f
6:12 8 14 mph 995.6mb 42f 46f
6:06 9 13 mph 995.5mb 42f 46f
6:00 9 14 mph 995.5mb 42f 46f
5:54 8 14 mph 995.4mb 42f 46f
5:48 10 14 mph 995.4mb 42f 46f
5:36 9 13 mph 995.4mb 42f 46f
5:30 7 11 mph 995.4mb 42f 46f
5:24 8 11 mph 995.3mb 42f 46f
5:18 9 11 mph 995.3mb 42f 46f
5:12 8 10 mph 995.2mb 42f 46f
5:06 7 8 mph 995.2mb 42f 46f
5:00 6 8 mph 995.1mb 42f 46f
4:54 7 10 mph 995.1mb 42f 46f
4:48 6 13 mph 995.1mb 42f 46f
4:36 10 16 mph 995mb 42f 46f
4:30 7 13 mph 995mb 42f 46f
4:24 9 16 mph 994.9mb 42f 46f
4:18 9 15 mph 994.9mb 42f 46f
4:12 10 22 mph 994.9mb 42f 46f
4:06 23 28 mph 994.6mb 42f 45f
4:00 7 9 mph 994.5mb 42f 45f
3:54 7 9 mph 994.4mb 42f 45f
3:48 8 11 mph 994.4mb 42f 45f
3:36 9 13 mph 994.3mb 42f 45f
3:30 10 20 mph 994.2mb 42f 45f
3:24 17 22 mph 994.2mb 42f 46f
3:18 11 14 mph 994mb 42f 46f
3:12 6 13 mph 993.8mb 42f 46f
3:06 7 13 mph 993.8mb 42f 46f
3:00 8 13 mph 993.9mb 42f 46f
2:54 6 14 mph 993.9mb 42f 46f
2:48 7 14 mph 993.9mb 42f 46f
2:36 10 24 mph 993.8mb 42f 47f
2:30 14 20 mph 993.8mb 42f 47f
2:24 11 20 mph 993.7mb 42f 47f
2:18 11 22 mph 993.6mb 42f 47f
2:12 13 22 mph 993.6mb 42f 48f
2:06 13 22 mph 993.4mb 42f 48f
2:00 13 22 mph 993.4mb 42f 47f
1:54 11 25 mph 993.3mb 42f 47f
1:48 11 22 mph 993.2mb 42f 48f
1:36 14 22 mph 993mb 42f 48f
1:30 13 17 mph 993mb 42f 48f
1:24 9 15 mph 993mb 42f 47f
1:18 7 13 mph 993mb 42f 47f
1:12 7 13 mph 992.9mb 42f 47f
1:06 9 14 mph 992.9mb 42f 47f
1:00 11 16 mph 992.9mb 42f 47f
12:54 13 18 mph 992.9mb 42f 47f
12:48 17 23 mph 992.9mb 42f 48f
12:36 14 17 mph 992.7mb 42f 47f
12:30 11 16 mph 992.5mb 42f 48f
12:24 14 18 mph 992.5mb 42f 47f
12:18 13 16 mph 992.3mb 42f 48f
12:12 13 17 mph 992.2mb 42f 48f
12:06 14 17 mph 992.2mb 42f 47f
12:00 14 16 mph 992.1mb 42f 47f
Mi 01/18 11:54 13 15 mph 992mb 42f 47f
11:48 11 15 mph 992mb 42f 47f
11:36 11 14 mph 991.8mb 42f 47f
11:30 11 14 mph 991.7mb 42f 47f
11:24 11 15 mph 991.6mb 42f 48f
11:18 13 16 mph 991.6mb 42f 48f
11:12 11 15 mph 991.4mb 42f 47f
11:06 11 16 mph 991.4mb 42f 47f
11:00 11 16 mph 991.3mb 42f 47f
10:54 11 17 mph 991.2mb 42f 48f
10:48 10 18 mph 991mb 41f 48f
10:36 13 17 mph 990.8mb 42f 47f
10:30 10 21 mph 990.7mb 42f 47f
10:24 9 17 mph 990.7mb 42f 47f
10:18 7 10 mph 990.7mb 42f 47f
10:12 8 14 mph 990.6mb 42f 47f
10:06 7 13 mph 990.5mb 42f 47f
10:00 5 11 mph 990.5mb 42f 47f
9:54 8 14 mph 990.4mb 42f 47f
9:48 7 15 mph 990.4mb 42f 47f
9:36 6 10 mph 990.2mb 42f 47f
9:30 6 11 mph 990.1mb 42f 47f
9:24 6 10 mph 990.2mb 42f 47f
9:18 7 14 mph 990.2mb 42f 47f
9:12 8 11 mph 990.1mb 42f 47f
9:06 5 10 mph 990.1mb 42f 47f
9:00 6 11 mph 989.9mb 42f 47f
8:36 11 14 mph 989.7mb 41f 48f
8:30 8 14 mph 989.6mb 42f 47f
8:24 6 10 mph 989.5mb 41f 47f
8:18 6 11 mph 989.5mb 42f 47f
8:12 6 14 mph 989.4mb 41f 48f
8:06 8 18 mph 989.4mb 41f 48f
8:00 6 16 mph 989.4mb 42f 48f
7:54 10 16 mph 989.4mb 41f 47f
7:48 9 21 mph 989.4mb 41f 47f
7:36 11 14 mph 989.5mb 42f 47f
7:30 9 13 mph 989.4mb 42f 48f
7:24 7 15 mph 989.3mb 42f 48f
7:18 10 22 mph 989.2mb 42f 48f
7:12 16 22 mph 989.1mb 42f 49f
7:06 2 6 mph 988.9mb 42f 49f
7:00 3 8 mph 988.7mb 42f 48f
6:54 5 6 mph 988.6mb 42f 48f
6:48 2 5 mph 988.5mb 42f 48f
6:36 5 8 mph 988.5mb 42f 47f
6:30 7 25 mph 988.5mb 42f 50f
6:24 9 15 mph 988.6mb 42f 50f
6:18 8 14 mph 988.4mb 42f 50f
6:12 10 14 mph 988.4mb 42f 49f
6:06 6 8 mph 988.5mb 42f 49f
6:00 5 14 mph 988.4mb 42f 50f
5:54 10 16 mph 988.5mb 42f 49f
5:48 6 13 mph 988.6mb 42f 49f
5:36 8 15 mph 988.6mb 42f 49f
5:30 9 15 mph 988.7mb 42f 49f
5:24 8 17 mph 988.7mb 42f 49f
5:18 7 15 mph 988.8mb 42f 50f
5:12 8 16 mph 988.9mb 42f 50f
5:06 9 22 mph 988.9mb 42f 50f
5:00 9 23 mph 989mb 42f 50f
4:54 10 22 mph 989.1mb 42f 49f
4:48 11 21 mph 989.2mb 42f 50f
4:36 14 22 mph 989.3mb 42f 50f
4:30 14 22 mph 989.4mb 42f 50f
4:24 13 23 mph 989.5mb 42f 50f
4:18 15 21 mph 989.5mb 42f 50f
4:12 15 25 mph 989.6mb 42f 50f
4:06 16 21 mph 989.6mb 42f 50f
4:00 13 24 mph 989.6mb 42f 50f
3:54 13 20 mph 989.6mb 42f 50f
3:48 16 23 mph 989.7mb 42f 50f
3:36 15 23 mph 989.7mb 42f 50f
3:30 17 31 mph 989.7mb 42f 50f
3:24 17 26 mph 989.6mb 42f 50f
3:18 18 26 mph 989.6mb 42f 50f
3:12 15 23 mph 989.7mb 42f 50f
3:06 11 23 mph 989.9mb 42f 50f
3:00 15 26 mph 989.8mb 42f 50f
2:36 17 25 mph 989.8mb 41f 51f
2:30 15 24 mph 989.8mb 41f 50f
2:24 13 24 mph 989.8mb 42f 50f
2:18 16 28 mph 990mb 41f 50f
2:12 15 24 mph 990.2mb 42f 50f
2:06 14 29 mph 990.2mb 42f 50f
2:00 17 31 mph 990.2mb 42f 50f
1:54 13 25 mph 990.2mb 42f 50f
1:48 14 23 mph 990.1mb 41f 50f
1:36 16 26 mph 990.1mb 42f 50f
1:30 17 26 mph 990.2mb 41f 50f
1:24 14 24 mph 990.1mb 41f 50f
1:18 17 26 mph 990.2mb 41f 51f
1:12 20 29 mph 990.3mb 41f 50f
1:06 17 25 mph 990.4mb 41f 51f
1:00 14 26 mph 990.4mb 41f 50f
12:54 15 25 mph 990.4mb 41f 50f
12:48 15 30 mph 990.4mb 41f 50f
12:36 17 26 mph 990.2mb 41f 50f
12:30 15 26 mph 990.2mb 42f 50f
12:24 18 26 mph 990.1mb 42f 50f
12:18 20 30 mph 990mb 42f 50f
12:12 20 31 mph 990.1mb 41f 49f
12:06 17 23 mph 990.1mb 41f 49f
12:00 14 23 mph 990.2mb 42f 48f
11:54 17 30 mph 990.3mb 42f 49f
11:48 21 26 mph 990.2mb 42f 49f
11:36 16 24 mph 990.2mb 42f 49f
11:30 20 26 mph 990.2mb 42f 49f
11:24 15 30 mph 990.1mb 41f 49f
11:18 23 31 mph 990.1mb 41f 49f
11:12 16 29 mph 990.2mb 41f 49f
11:06 20 32 mph 990.2mb 41f 49f
11:00 20 28 mph 990.1mb 42f 50f
10:54 20 33 mph 990mb 42f 50f
10:48 18 34 mph 989.8mb 42f 50f
10:36 21 30 mph 989.7mb 41f 50f
10:30 17 29 mph 989.6mb 41f 50f
10:24 23 34 mph 989.5mb 41f 51f
10:18 23 34 mph 989.4mb 42f 51f
10:12 24 33 mph 989.2mb 41f 50f
10:06 23 43 mph 989.1mb 41f 49f
10:00 21 39 mph 988.9mb 41f 49f
9:54 20 29 mph 988.9mb 41f 49f
9:48 17 30 mph 988.8mb 41f 49f
9:36 20 33 mph 988.7mb 41f 49f
9:30 21 37 mph 988.6mb 41f 49f
9:24 23 38 mph 988.5mb 41f 49f
9:18 20 33 mph 988.5mb 42f 50f
9:12 21 33 mph 988.4mb 42f 50f
9:06 22 31 mph 988.4mb 42f 50f
9:00 24 36 mph 988.4mb 42f 50f
8:54 17 34 mph 988.4mb 42f 51f
8:48 24 39 mph 988.3mb 41f 50f
8:36 22 48 mph 988.2mb 42f 50f
8:30 18 32 mph 988mb 42f 50f
8:24 22 40 mph 987.8mb 42f 50f
8:18 22 36 mph 987.7mb 42f 50f
8:12 23 39 mph 987.5mb 42f 50f
8:06 23 37 mph 987.4mb 42f 50f
8:00 24 41 mph 987.2mb 42f 49f
7:54 24 38 mph 987.1mb 42f 49f
7:48 20 34 mph 987.1mb 42f 49f
7:36 23 31 mph 986.9mb 41f 49f
7:30 18 34 mph 987mb 42f 49f
7:24 21 33 mph 986.9mb 41f 49f
7:18 20 43 mph 987.1mb 41f 49f
7:12 22 45 mph 987.2mb 41f 49f
7:06 25 36 mph 987.3mb 41f 49f
7:00 24 37 mph 987.4mb 41f 49f
6:54 24 37 mph 987.5mb 41f 49f
6:48 21 36 mph 987.5mb 42f 49f
6:36 22 37 mph 987.7mb 42f 49f
6:30 21 29 mph 987.9mb 42f 49f
6:24 24 37 mph 988mb 42f 49f
6:18 18 31 mph 988.1mb 42f 49f
6:12 17 26 mph 988.3mb 41f 49f
6:06 18 29 mph 988.5mb 41f 48f
6:00 15 22 mph 988.7mb 42f 48f
5:54 10 22 mph 989mb 42f 49f
5:48 15 22 mph 989.2mb 42f 49f
5:36 16 28 mph 989.6mb 42f 49f
5:30 11 26 mph 989.8mb 42f 49f
5:24 15 23 mph 989.9mb 42f 49f
5:18 16 29 mph 990mb 42f 49f
5:12 17 31 mph 990.2mb 42f 49f
5:06 21 29 mph 990.3mb 42f 49f
5:00 16 29 mph 990.4mb 42f 49f
4:54 18 28 mph 990.5mb 42f 49f
4:48 16 29 mph 990.6mb 42f 49f
4:36 14 29 mph 990.9mb 42f 49f
4:30 15 25 mph 991mb 42f 49f
4:24 13 26 mph 991.1mb 42f 49f
4:18 18 29 mph 991.1mb 42f 49f
4:12 11 24 mph 991.2mb 42f 49f
4:06 15 25 mph 991.3mb 42f 49f
4:00 10 22 mph 991.5mb 42f 49f
3:54 14 22 mph 991.7mb 41f 49f
3:48 13 26 mph 991.8mb 41f 49f
3:36 13 21 mph 992mb 41f 49f
3:30 13 29 mph 992.1mb 42f 49f
3:24 15 26 mph 992.3mb 42f 49f
3:18 13 22 mph 992.5mb 41f 48f
3:12 13 24 mph 992.6mb 41f 48f
3:06 15 24 mph 992.8mb 42f 48f
3:00 13 28 mph 992.9mb 42f 48f
2:54 16 29 mph 992.9mb 41f 48f
2:48 16 24 mph 993mb 41f 48f
2:36 20 25 mph 993.1mb 41f 48f
2:30 17 23 mph 993.2mb 41f 48f
2:24 15 24 mph 993.2mb 41f 48f
2:18 15 25 mph 993.3mb 41f 48f
2:12 17 25 mph 993.5mb 41f 48f
2:06 15 29 mph 993.5mb 41f 48f